Aérodrome :
LOGIN :

S'inscrire | Disclaimer

   EN    FR    IT 

 










Légende :    VFR   VFR Marginal   IFR   IFR Intensif   IFR Très Intensif
Visi : 
Plafond : 
>= 8 km
>= 3000ft
5 à 8 km
1000 à 3000 ft
1500m à 5 km
500 à 1000 ft
800 à 1500m
200 à 500 ft
< 800m
< 200 ft
Symboles :   Orages  Brouillard  Fortes neiges  Fortes précipitations  Vent > 20 kt
SIGMETs :   Divers  Orages  Givrage  Turbulence  Onde Orograph.  Cendres Volcan.







- Altitude de l'aérodrome : 1273 ft
- Code IATA : LJU


LJLJ - Ljubljana

DERNIER METAR :
  • 221300Z 09004KT 070V160 9999 FEW018 SCT043 BKN190 22/15 Q1024 NOSIG

METARs EXPIRÉS :
  • 221230Z VRB02KT 9999 FEW018 BKN043 BKN250 21/15 Q1024 NOSIG
  • 221200Z VRB02KT 9999 -SHRA FEW013 FEW028TCU BKN043 BKN140 21/15 Q1024 NOSIG
  • 221130Z VRB03KT 9999 VCSH FEW017 FEW028TCU BKN043 BKN250 21/14 Q1024 NOSIG
  • 221100Z 06003KT 020V120 9999 VCSH FEW017 FEW025TCU BKN043 BKN250 21/15 Q1024 NOSIG
  • 221030Z VRB01KT 9999 FEW017 BKN045 BKN160 20/14 Q1025 NOSIG

TAF TAF LJLJ
Valide du 22 à 12h jusqu'au 23 à 12h UTC


221100Z 2212/2312 12004KT 9999 FEW040 SCT120 BKN200
PROB30
TEMPO 2212/2218 SHRA FEW030 BKN040TCU
TEMPO 2221/2309 BKN040
PROB40
TEMPO 2309/2312 SHRA SCT045TCU BKN080
Pas de NOTAMs connus pour ce terrain.



MET'MAP, la Météo Aéronautique d'un coup d'oeil ! - Copyright ORBIFLY Décembre 2007 - Disclaimer

ORBIFLY MET'MAP TEAM :

Programmation & Développement : Alexandra Zaïnal
Conception & Développement : Baudouin d'Aumeries
Co-Programmation & Développement : Marc-Olivier Méhu
Soutien technique & logistique : Manuel Goepfert

Contact : metmap@orbifly.com




SOURCES & CREDITS :

   NOAA